Pagrindinis puslapis
METAR-TAF:

METAR-TAF

Oro uostai :

Bastja, Prancūzija

platuma: 42-33N, ilguma: 009-29E, Aukštis: 8 m

Dabartinis oras

Ataskaita buvo paskelbta 19 minutes, ne 23:30 UTC
Vėjas 8 kt iš Pietvakarių
Temperatūra 13°C
Drėgmė 47%
Slėgis 1026 hPa
Matomumas 10 km arba daugiau
nėra debesų žemiau 1500 m ir nėra kamuolinių lietaus debesų

METAR: LFKB 072330Z AUTO 22008KT CAVOK 13/02 Q1026 NOSIG

Laikas: 01:49 (23:49 UTC)

Prognozė

Ataskaita buvo paskelbta 3 valandos ir 49 minutes, ne 20:00 UTC
Prognozė galioja nuo 07 metu 21 UTC su 08 metu 21 UTC
Vėjas 6 kt iš Vakarų/Pietvakarių
Matomumas 10 km arba daugiau
nėra debesų žemiau 1500 m ir nėra kamuolinių lietaus debesų
Tapsmas
nuo 08 metu 07 UTC su 08 metu 09 UTC
Vėjas 10 kt iš Šiaurės/Šiaurės Rytų
Tapsmas
nuo 08 metu 16 UTC su 08 metu 18 UTC
Vėjas 4 kt iš Vakarų/Pietvakarių

TAF: LFKB 072000Z 0721/0821 24006KT CAVOK TX20/0813Z TN08/0804Z BECMG 0807/0809 02010KT BECMG 0816/0818 24004KT

Orai ataskaitas ir orų prognozės (METAR, TAF).

turimą stotys yra geltonos ir raudonos taškus žemėlapyje.

Perkelti pele per norėdami pamatyti stoties vardą.

Tada spustelėkite, norėdami matyti oro stebėjimo ir prognozės.

Norėdami pakeisti žemėlapį: spustelėkite ant žalios mygtukų su juodo kryžiaus žemyn,; žalią mygtuką su brūkšneliu, jei norite nutolinti; arba žalių rodyklių gretimoms žemėlapius.


METAR-TAF: